Big Bear Station Historical Data
Daily Summary for April 10, 2019 Units:  English    Metric   Both
Next Day »
Daily Weekly Monthly Yearly Custom
  High: Low: Average:
Temperature: 51.4 °F 29.8 °F 38.5 °F
Dew Point: 26.6 °F 12.1 °F 18.9 °F
Humidity: 84% 26% 48%
Wind Speed: 10.4mph 0.0mph 4.8mph
Wind Gust: -999.0mph - -
Wind- - West
Pressure: 23.54 in 23.40 in -
Precipitation: 0.00 in    
Historical Graphs
 
 
Tabular Data for April 10, 2019
Time Temperature Dew Point Pressure Wind Wind Speed Wind Gust Humidity Rainfall Rate (Hourly)
00:04 30.9 °F 26.6 °F 23.40 in NW 8.3 mph -999.0 mph 84% 0.00 in
00:19 30.7 °F 25.3 °F 23.41 in WNW 6.3 mph -999.0 mph 80% 0.00 in
00:34 31.6 °F 25.5 °F 23.40 in NNW 7.8 mph -999.0 mph 78% 0.00 in
00:50 30.9 °F 25.5 °F 23.41 in WNW 4.7 mph -999.0 mph 80% 0.00 in
01:05 30.4 °F 24.7 °F 23.42 in NW 5.3 mph -999.0 mph 79% 0.00 in
01:20 29.8 °F 23.8 °F 23.42 in NNW 5.3 mph -999.0 mph 78% 0.00 in
01:35 30.0 °F 23.0 °F 23.42 in East 2.2 mph -999.0 mph 75% 0.00 in
01:50 30.4 °F 23.1 °F 23.42 in East 2.2 mph -999.0 mph 74% 0.00 in
02:06 30.4 °F 22.8 °F 23.42 in SSE 1.1 mph -999.0 mph 73% 0.00 in
02:21 30.6 °F 20.9 °F 23.41 in NNW 1.7 mph -999.0 mph 67% 0.00 in
02:36 31.6 °F 21.5 °F 23.41 in NNW 6.8 mph -999.0 mph 66% 0.00 in
02:51 32.0 °F 21.2 °F 23.41 in NNW 6.3 mph -999.0 mph 64% 0.00 in
03:06 31.6 °F 19.7 °F 23.42 in NW 4.7 mph -999.0 mph 61% 0.00 in
03:22 31.6 °F 18.9 °F 23.42 in NW 5.8 mph -999.0 mph 59% 0.00 in
03:37 31.6 °F 19.3 °F 23.42 in NNW 3.2 mph -999.0 mph 60% 0.00 in
03:52 31.6 °F 19.7 °F 23.42 in NNW 5.8 mph -999.0 mph 61% 0.00 in
04:07 31.8 °F 19.5 °F 23.42 in NW 7.8 mph -999.0 mph 60% 0.00 in
04:23 31.6 °F 19.3 °F 23.42 in NW 6.3 mph -999.0 mph 60% 0.00 in
04:38 31.5 °F 18.4 °F 23.43 in North 5.8 mph -999.0 mph 58% 0.00 in
04:54 31.8 °F 17.9 °F 23.43 in NNW 4.2 mph -999.0 mph 56% 0.00 in
05:10 31.6 °F 16.8 °F 23.43 in East 6.8 mph -999.0 mph 54% 0.00 in
05:25 31.5 °F 18.4 °F 23.43 in NNE 5.3 mph -999.0 mph 58% 0.00 in
05:40 31.5 °F 18.4 °F 23.44 in NNW 4.7 mph -999.0 mph 58% 0.00 in
05:56 31.1 °F 17.6 °F 23.44 in North 4.7 mph -999.0 mph 57% 0.00 in
06:11 30.9 °F 18.2 °F 23.45 in North 5.3 mph -999.0 mph 59% 0.00 in
06:26 30.7 °F 17.7 °F 23.45 in NNE 3.7 mph -999.0 mph 58% 0.00 in
06:41 30.7 °F 18.8 °F 23.46 in NNW 2.7 mph -999.0 mph 61% 0.00 in
06:56 30.7 °F 19.2 °F 23.46 in NW 5.8 mph -999.0 mph 62% 0.00 in
07:12 30.7 °F 20.0 °F 23.47 in NNE 3.7 mph -999.0 mph 64% 0.00 in
07:42 31.3 °F 19.4 °F 23.47 in NNE 1.7 mph -999.0 mph 61% 0.00 in
07:58 31.8 °F 18.7 °F 23.47 in North 2.7 mph -999.0 mph 58% 0.00 in
08:13 32.2 °F 18.7 °F 23.47 in North 4.2 mph -999.0 mph 57% 0.00 in
08:28 33.3 °F 18.0 °F 23.48 in NW 2.2 mph -999.0 mph 53% 0.00 in
08:44 34.3 °F 18.0 °F 23.48 in NW 6.8 mph -999.0 mph 51% 0.00 in
08:59 35.2 °F 17.5 °F 23.47 in NNE 4.7 mph -999.0 mph 48% 0.00 in
09:14 36.0 °F 16.7 °F 23.48 in NNW 7.3 mph -999.0 mph 45% 0.00 in
09:29 36.3 °F 15.4 °F 23.48 in NNW 5.3 mph -999.0 mph 42% 0.00 in
09:44 37.0 °F 14.9 °F 23.49 in NNW 7.3 mph -999.0 mph 40% 0.00 in
10:00 37.9 °F 14.5 °F 23.49 in NW 3.7 mph -999.0 mph 38% 0.00 in
10:15 38.5 °F 12.5 °F 23.49 in NNW 4.7 mph -999.0 mph 34% 0.00 in
10:30 39.6 °F 12.1 °F 23.49 in North 5.3 mph -999.0 mph 32% 0.00 in
10:45 39.9 °F 13.1 °F 23.50 in NE 5.3 mph -999.0 mph 33% 0.00 in
11:00 42.4 °F 16.0 °F 23.50 in NNW 3.7 mph -999.0 mph 34% 0.00 in
11:16 43.5 °F 18.3 °F 23.50 in NNW 7.3 mph -999.0 mph 36% 0.00 in
11:31 42.6 °F 15.5 °F 23.51 in NNE 10.4 mph -999.0 mph 33% 0.00 in
11:47 43.2 °F 16.7 °F 23.51 in NNW 6.3 mph -999.0 mph 34% 0.00 in
12:03 44.4 °F 15.6 °F 23.51 in NW 9.4 mph -999.0 mph 31% 0.00 in
12:19 44.6 °F 15.8 °F 23.51 in NNE 8.9 mph -999.0 mph 31% 0.00 in
12:34 45.9 °F 16.9 °F 23.51 in NNE 8.9 mph -999.0 mph 31% 0.00 in
12:50 46.9 °F 17.1 °F 23.51 in NNE 7.8 mph -999.0 mph 30% 0.00 in
13:05 47.7 °F 17.0 °F 23.51 in NW 8.9 mph -999.0 mph 29% 0.00 in
13:20 47.3 °F 17.4 °F 23.51 in North 6.3 mph -999.0 mph 30% 0.00 in
13:35 47.3 °F 17.4 °F 23.51 in NW 6.8 mph -999.0 mph 30% 0.00 in
13:51 47.1 °F 18.7 °F 23.51 in NNW 7.8 mph -999.0 mph 32% 0.00 in
14:06 48.4 °F 17.6 °F 23.51 in NNE 7.3 mph -999.0 mph 29% 0.00 in
14:21 48.9 °F 18.0 °F 23.51 in North 4.7 mph -999.0 mph 29% 0.00 in
14:36 49.1 °F 17.4 °F 23.51 in East 4.7 mph -999.0 mph 28% 0.00 in
14:52 48.9 °F 18.0 °F 23.51 in NW 8.9 mph -999.0 mph 29% 0.00 in
15:08 48.6 °F 18.5 °F 23.51 in NW 7.3 mph -999.0 mph 30% 0.00 in
15:23 48.9 °F 18.8 °F 23.51 in NNW 7.3 mph -999.0 mph 30% 0.00 in
15:38 48.2 °F 17.4 °F 23.51 in NW 2.2 mph -999.0 mph 29% 0.00 in
15:53 47.5 °F 16.8 °F 23.50 in ESE 3.7 mph -999.0 mph 29% 0.00 in
16:09 47.8 °F 20.1 °F 23.50 in WNW 5.8 mph -999.0 mph 33% 0.00 in
16:24 48.6 °F 19.3 °F 23.50 in NNW 4.7 mph -999.0 mph 31% 0.00 in
16:39 48.6 °F 18.5 °F 23.50 in NNE 4.2 mph -999.0 mph 30% 0.00 in
16:55 50.0 °F 19.8 °F 23.49 in NNE 4.7 mph -999.0 mph 30% 0.00 in
17:10 50.4 °F 18.5 °F 23.49 in NW 6.3 mph -999.0 mph 28% 0.00 in
17:26 51.4 °F 17.6 °F 23.50 in North 5.3 mph -999.0 mph 26% 0.00 in
17:41 50.0 °F 18.1 °F 23.50 in NNW 8.9 mph -999.0 mph 28% 0.00 in
17:56 48.2 °F 19.7 °F 23.51 in NNW 8.3 mph -999.0 mph 32% 0.00 in
18:11 47.3 °F 18.2 °F 23.50 in NNW 4.7 mph -999.0 mph 31% 0.00 in
18:27 46.2 °F 19.4 °F 23.50 in NW 3.2 mph -999.0 mph 34% 0.00 in
18:43 44.1 °F 18.8 °F 23.50 in NW 4.2 mph -999.0 mph 36% 0.00 in
18:58 42.8 °F 18.3 °F 23.50 in NW 3.7 mph -999.0 mph 37% 0.00 in
19:13 41.7 °F 17.9 °F 23.50 in ENE 4.2 mph -999.0 mph 38% 0.00 in
19:28 40.6 °F 19.3 °F 23.49 in NNW 2.7 mph -999.0 mph 42% 0.00 in
19:43 39.9 °F 18.1 °F 23.49 in Calm   -999.0 mph 41% 0.00 in
19:59 38.1 °F 18.6 °F 23.50 in Calm   -999.0 mph 45% 0.00 in
20:14 38.1 °F 20.1 °F 23.49 in Calm   -999.0 mph 48% 0.00 in
20:29 37.9 °F 20.4 °F 23.50 in NW 3.2 mph -999.0 mph 49% 0.00 in
20:44 37.2 °F 20.3 °F 23.51 in NW 4.7 mph -999.0 mph 50% 0.00 in
20:59 37.2 °F 20.3 °F 23.51 in West 2.7 mph -999.0 mph 50% 0.00 in
21:15 36.5 °F 19.1 °F 23.52 in Calm   -999.0 mph 49% 0.00 in
21:30 35.4 °F 18.6 °F 23.52 in Calm   -999.0 mph 50% 0.00 in
21:46 35.1 °F 19.7 °F 23.52 in Calm   -999.0 mph 53% 0.00 in
22:01 35.4 °F 20.4 °F 23.52 in NW 3.7 mph -999.0 mph 54% 0.00 in
22:16 36.0 °F 20.1 °F 23.53 in NNW 4.2 mph -999.0 mph 52% 0.00 in
22:32 36.3 °F 20.8 °F 23.53 in WNW 4.7 mph -999.0 mph 53% 0.00 in
22:47 36.1 °F 19.2 °F 23.54 in NW 4.7 mph -999.0 mph 50% 0.00 in
23:02 35.8 °F 20.8 °F 23.54 in Calm   -999.0 mph 54% 0.00 in
23:17 36.0 °F 21.4 °F 23.53 in Calm   -999.0 mph 55% 0.00 in
23:32 35.8 °F 21.6 °F 23.53 in Calm   -999.0 mph 56% 0.00 in
23:48 36.3 °F 22.5 °F 23.53 in Calm   -999.0 mph 57% 0.00 in
Big Bear CA Weather